createdAt,value
2022-09-26T00:00:49.673Z,2.60
2022-09-26T00:03:16.314Z,3.00
2022-09-26T00:05:42.638Z,2.72
2022-09-26T00:08:08.990Z,2.90
2022-09-26T00:10:35.452Z,2.78
2022-09-26T00:13:01.800Z,2.80
2022-09-26T00:15:28.220Z,2.50
2022-09-26T00:17:54.571Z,2.58
2022-09-26T00:20:20.924Z,2.50
2022-09-26T00:22:47.247Z,2.85
2022-09-26T00:25:14.034Z,2.53
2022-09-26T00:27:40.402Z,2.38
2022-09-26T00:30:07.645Z,1.98
2022-09-26T00:32:33.980Z,2.67
2022-09-26T00:35:00.321Z,2.40
2022-09-26T00:37:26.671Z,2.70
2022-09-26T00:39:53.000Z,2.22
2022-09-26T00:42:22.450Z,2.72
2022-09-26T00:44:54.754Z,2.58
2022-09-26T00:47:39.206Z,2.42
2022-09-26T00:50:26.259Z,2.40
2022-09-26T00:52:58.446Z,2.58
2022-09-26T00:55:35.007Z,2.22
2022-09-26T00:58:09.974Z,2.42
2022-09-26T01:00:37.661Z,2.40
2022-09-26T01:03:04.127Z,2.67
2022-09-26T01:05:31.734Z,3.28
2022-09-26T01:07:59.128Z,2.50
2022-09-26T01:10:26.893Z,2.60
2022-09-26T01:12:55.762Z,2.42
2022-09-26T01:15:22.221Z,2.40
2022-09-26T01:17:49.618Z,2.25
2022-09-26T01:20:42.076Z,3.13
2022-09-26T01:23:17.865Z,2.45
2022-09-26T01:26:19.372Z,2.70
2022-09-26T01:29:23.203Z,2.80
2022-09-26T01:32:22.305Z,2.50
2022-09-26T01:35:17.591Z,2.63
2022-09-26T01:38:10.066Z,2.40
2022-09-26T01:41:03.531Z,2.47
2022-09-26T01:43:50.409Z,2.72
2022-09-26T01:46:31.234Z,2.55
2022-09-26T01:49:02.369Z,2.70
2022-09-26T01:51:48.906Z,2.90
2022-09-26T01:54:24.642Z,2.90
2022-09-26T01:56:53.331Z,2.80
2022-09-26T01:59:26.059Z,3.40
2022-09-26T02:01:59.390Z,3.33
2022-09-26T02:04:32.387Z,3.10
2022-09-26T02:07:05.554Z,3.30
2022-09-26T02:09:53.475Z,3.28
2022-09-26T02:12:26.874Z,3.45
2022-09-26T02:14:56.622Z,3.72
2022-09-26T02:17:28.459Z,4.15
2022-09-26T02:19:58.926Z,3.00
2022-09-26T02:22:32.771Z,3.47
2022-09-26T02:24:59.270Z,3.05
2022-09-26T02:27:27.179Z,2.92
2022-09-26T02:29:54.631Z,3.42
2022-09-26T02:32:25.948Z,3.25
2022-09-26T02:34:52.420Z,3.30
2022-09-26T02:37:21.031Z,2.97
2022-09-26T02:39:49.739Z,3.35
2022-09-26T02:42:40.487Z,2.95
2022-09-26T02:45:46.312Z,3.33
2022-09-26T02:48:29.650Z,3.03
2022-09-26T02:51:36.165Z,2.88
2022-09-26T02:54:14.640Z,2.88
2022-09-26T02:56:58.430Z,3.33
2022-09-26T02:59:51.997Z,3.00
2022-09-26T03:02:25.376Z,3.10
2022-09-26T03:05:00.647Z,2.90
2022-09-26T03:07:32.511Z,3.35
2022-09-26T03:10:03.601Z,3.67
2022-09-26T03:12:32.579Z,3.75
2022-09-26T03:15:01.896Z,3.70
2022-09-26T03:17:29.676Z,3.60
2022-09-26T03:20:05.722Z,3.72
2022-09-26T03:22:33.436Z,3.47
2022-09-26T03:25:00.545Z,3.58
2022-09-26T03:27:27.565Z,3.50
2022-09-26T03:29:54.004Z,3.85
2022-09-26T03:32:20.326Z,3.50
2022-09-26T03:34:46.697Z,3.17
2022-09-26T03:37:13.641Z,3.95
2022-09-26T03:39:39.966Z,4.40
2022-09-26T03:42:06.371Z,3.65
2022-09-26T03:44:32.696Z,4.05
2022-09-26T03:46:59.042Z,4.05
2022-09-26T03:49:25.434Z,4.50
2022-09-26T03:51:51.762Z,4.72
2022-09-26T03:54:18.094Z,4.40
2022-09-26T03:56:44.908Z,4.90
2022-09-26T03:59:11.334Z,5.20
2022-09-26T04:01:37.772Z,5.00
2022-09-26T04:04:05.180Z,4.60
2022-09-26T04:06:31.532Z,4.75
2022-09-26T04:08:57.939Z,5.05
2022-09-26T04:11:24.956Z,4.60
2022-09-26T04:13:53.785Z,4.82
2022-09-26T04:16:23.527Z,4.85
2022-09-26T04:18:55.274Z,5.22
2022-09-26T04:21:21.589Z,5.00
2022-09-26T04:23:48.051Z,5.38
2022-09-26T04:26:22.897Z,5.05
2022-09-26T04:28:51.991Z,4.68
2022-09-26T04:31:18.497Z,5.32
2022-09-26T04:33:45.216Z,5.72
2022-09-26T04:36:13.864Z,5.40
2022-09-26T04:38:41.024Z,5.65
2022-09-26T04:41:10.609Z,5.50
2022-09-26T04:43:37.664Z,5.28
2022-09-26T04:46:09.171Z,5.32
2022-09-26T04:48:36.330Z,5.30
2022-09-26T04:51:08.259Z,5.22
2022-09-26T04:53:35.801Z,4.95
2022-09-26T04:56:02.326Z,5.28
2022-09-26T04:58:29.668Z,5.20
2022-09-26T05:00:56.404Z,5.07
2022-09-26T05:03:22.792Z,5.35
2022-09-26T05:05:50.331Z,5.18
2022-09-26T05:08:17.043Z,5.70
2022-09-26T05:10:43.917Z,4.97
2022-09-26T05:13:10.814Z,5.70
2022-09-26T05:15:39.765Z,5.03
2022-09-26T05:18:08.400Z,5.32
2022-09-26T05:20:35.531Z,5.53
2022-09-26T05:23:03.689Z,5.53
2022-09-26T05:25:55.006Z,5.13
2022-09-26T05:28:21.621Z,5.30
2022-09-26T05:30:48.232Z,5.20
2022-09-26T05:33:14.877Z,5.25
2022-09-26T05:35:41.303Z,5.55
2022-09-26T05:38:07.693Z,5.53
2022-09-26T05:40:52.601Z,5.65
2022-09-26T05:43:18.984Z,5.75
2022-09-26T05:45:50.773Z,5.78
2022-09-26T05:48:17.287Z,5.47
2022-09-26T05:50:44.018Z,5.03
2022-09-26T05:53:10.472Z,5.75
2022-09-26T05:55:39.816Z,5.65
2022-09-26T05:58:07.536Z,5.65
2022-09-26T06:00:34.193Z,5.53
2022-09-26T06:03:03.574Z,5.65
2022-09-26T06:05:32.235Z,5.15
2022-09-26T06:08:01.653Z,5.05
2022-09-26T06:10:28.078Z,5.90
2022-09-26T06:12:54.497Z,5.85
2022-09-26T06:15:21.142Z,6.60
2022-09-26T06:17:48.168Z,6.00
2022-09-26T06:20:14.566Z,6.15
2022-09-26T06:22:41.903Z,6.18
2022-09-26T06:25:10.648Z,5.85
2022-09-26T06:27:41.159Z,5.32
2022-09-26T06:30:10.832Z,5.82
2022-09-26T06:32:39.453Z,5.65
2022-09-26T06:35:07.267Z,5.85
2022-09-26T06:37:34.803Z,5.82
2022-09-26T06:40:01.700Z,5.97
2022-09-26T06:42:28.250Z,5.68
2022-09-26T06:44:55.226Z,5.55
2022-09-26T06:47:22.243Z,5.03
2022-09-26T06:49:49.835Z,5.82
2022-09-26T06:52:16.386Z,5.63
2022-09-26T06:54:43.006Z,5.65
2022-09-26T06:57:15.001Z,5.65
2022-09-26T06:59:44.036Z,5.80
2022-09-26T07:02:11.400Z,5.32
2022-09-26T07:04:38.072Z,5.10
2022-09-26T07:07:05.220Z,5.70
2022-09-26T07:09:32.270Z,5.15
2022-09-26T07:12:15.701Z,6.00
2022-09-26T07:14:44.089Z,4.90
2022-09-26T07:17:15.949Z,5.32
2022-09-26T07:19:43.163Z,5.47
2022-09-26T07:22:10.958Z,5.50
2022-09-26T07:24:38.024Z,4.95
2022-09-26T07:27:05.522Z,4.70
2022-09-26T07:29:33.747Z,5.05
2022-09-26T07:32:00.931Z,4.80
2022-09-26T07:34:28.116Z,5.07
2022-09-26T07:36:55.316Z,4.28
2022-09-26T07:39:22.360Z,4.57
2022-09-26T07:41:49.911Z,4.80
2022-09-26T07:45:09.248Z,4.35
2022-09-26T07:47:22.281Z,4.00
2022-09-26T07:50:07.768Z,4.55
2022-09-26T07:52:34.461Z,4.63
2022-09-26T07:55:01.071Z,3.70
2022-09-26T07:57:29.283Z,4.43
2022-09-26T07:59:55.862Z,4.00
2022-09-26T08:02:24.789Z,4.15
2022-09-26T08:05:03.977Z,4.32
2022-09-26T08:07:33.395Z,4.32
2022-09-26T08:10:02.211Z,4.10
2022-09-26T08:12:29.658Z,3.97
2022-09-26T08:14:56.134Z,4.28
2022-09-26T08:17:22.483Z,3.70
2022-09-26T08:19:48.883Z,3.75
2022-09-26T08:22:15.211Z,3.38
2022-09-26T08:24:41.911Z,3.80
2022-09-26T08:27:09.848Z,3.50
2022-09-26T08:29:36.193Z,3.28
2022-09-26T08:32:03.962Z,3.80
2022-09-26T08:34:35.243Z,3.35
2022-09-26T08:37:01.591Z,3.50
2022-09-26T08:39:32.538Z,2.70
2022-09-26T08:42:07.364Z,3.60
2022-09-26T08:44:53.939Z,3.28
2022-09-26T08:47:48.773Z,3.28
2022-09-26T08:50:33.127Z,3.05
2022-09-26T08:53:08.443Z,2.90
2022-09-26T08:55:40.862Z,2.88
2022-09-26T08:58:18.775Z,3.63
2022-09-26T09:01:00.630Z,3.25
2022-09-26T09:03:36.256Z,2.75
2022-09-26T09:06:11.225Z,2.97
2022-09-26T09:08:51.392Z,2.67
2022-09-26T09:11:23.334Z,2.95
2022-09-26T09:14:08.292Z,2.70
2022-09-26T09:16:44.815Z,3.22
2022-09-26T09:19:18.755Z,2.78
2022-09-26T09:22:12.879Z,2.72
2022-09-26T09:24:42.976Z,2.63
2022-09-26T09:32:53.197Z,2.70
2022-09-26T09:35:29.454Z,2.72
2022-09-26T09:37:56.504Z,2.80
2022-09-26T09:40:29.470Z,3.00
2022-09-26T09:43:03.461Z,3.05
2022-09-26T09:45:50.939Z,2.67
2022-09-26T09:48:17.778Z,3.15
2022-09-26T09:51:02.362Z,3.20
2022-09-26T09:53:34.776Z,2.75
2022-09-26T09:56:31.280Z,3.17
2022-09-26T09:59:03.598Z,3.03
2022-09-26T10:01:41.739Z,3.10
2022-09-26T10:04:33.841Z,2.65
2022-09-26T10:07:01.828Z,2.95
2022-09-26T10:09:39.950Z,3.03
2022-09-26T10:12:19.194Z,3.45
2022-09-26T10:14:55.009Z,2.70
2022-09-26T10:17:23.584Z,2.97
2022-09-26T10:19:50.536Z,3.00
2022-09-26T10:22:29.378Z,2.92
2022-09-26T10:25:16.937Z,2.80
2022-09-26T10:27:53.695Z,3.53
2022-09-26T10:30:20.121Z,2.50
2022-09-26T10:32:56.553Z,2.65
2022-09-26T10:35:25.314Z,4.97
2022-09-26T10:38:02.303Z,3.03
2022-09-26T10:40:47.553Z,2.17
2022-09-26T10:43:30.678Z,2.10
2022-09-26T10:46:06.558Z,2.58
2022-09-26T10:48:38.165Z,2.30
2022-09-26T10:51:07.202Z,2.58
2022-09-26T10:53:40.077Z,2.53
2022-09-26T10:56:11.942Z,2.40
2022-09-26T10:58:45.436Z,2.35
2022-09-26T11:01:21.837Z,2.80
2022-09-26T11:03:49.432Z,3.20
2022-09-26T11:06:31.631Z,2.83
2022-09-26T11:09:02.399Z,2.58
2022-09-26T11:11:38.236Z,2.63
2022-09-26T11:14:08.286Z,2.72
2022-09-26T11:16:43.565Z,2.80
2022-09-26T11:19:31.162Z,2.53
2022-09-26T11:22:25.121Z,3.05
2022-09-26T11:25:15.845Z,2.83
2022-09-26T11:27:51.054Z,2.45
2022-09-26T11:30:20.887Z,2.45
2022-09-26T11:32:58.567Z,2.88
2022-09-26T11:35:56.041Z,2.42
2022-09-26T11:38:46.358Z,2.00
2022-09-26T11:41:36.359Z,2.88
2022-09-26T11:44:20.640Z,2.50
2022-09-26T11:47:13.534Z,2.60
2022-09-26T11:50:04.387Z,2.83
2022-09-26T11:52:53.263Z,2.38
2022-09-26T11:55:41.031Z,2.65
2022-09-26T11:58:23.098Z,2.58
2022-09-26T12:01:30.512Z,2.50
2022-09-26T12:04:07.635Z,2.30
2022-09-26T12:06:56.303Z,2.38
2022-09-26T12:10:00.263Z,2.33
2022-09-26T12:12:42.516Z,2.38
2022-09-26T12:15:21.824Z,2.50
2022-09-26T12:17:51.107Z,2.22
2022-09-26T12:20:30.216Z,2.20
2022-09-26T12:23:21.726Z,2.17
2022-09-26T12:25:57.143Z,2.35
2022-09-26T12:28:35.746Z,2.42
2022-09-26T12:31:32.631Z,2.45
2022-09-26T12:36:47.680Z,2.28
2022-09-26T12:39:47.124Z,2.28
2022-09-26T12:42:28.806Z,2.10
2022-09-26T12:45:04.990Z,2.80
2022-09-26T12:48:02.776Z,2.70
2022-09-26T12:50:40.242Z,2.25
2022-09-26T12:53:27.479Z,2.40
2022-09-26T12:56:15.405Z,2.22
2022-09-26T12:59:15.573Z,2.00
2022-09-26T13:02:01.525Z,2.70
2022-09-26T13:05:19.238Z,2.60
2022-09-26T13:07:54.619Z,2.13
2022-09-26T13:10:51.557Z,2.40
2022-09-26T13:16:23.724Z,1.98
2022-09-26T13:18:56.015Z,1.75
2022-09-26T13:21:36.536Z,1.70
2022-09-26T13:24:13.804Z,1.90
2022-09-26T13:26:47.164Z,1.90
2022-09-26T13:29:20.871Z,1.98
2022-09-26T13:31:56.055Z,1.67
2022-09-26T13:34:38.088Z,1.80
2022-09-26T13:37:07.967Z,1.70
2022-09-26T13:39:52.804Z,1.90
2022-09-26T13:42:30.772Z,1.60
2022-09-26T13:45:19.312Z,1.77
2022-09-26T13:47:55.325Z,1.60
2022-09-26T13:53:11.390Z,1.33
2022-09-26T13:55:37.971Z,1.65
2022-09-26T13:58:26.581Z,1.55
2022-09-26T14:00:53.619Z,1.60
2022-09-26T14:03:20.190Z,2.10
2022-09-26T14:05:52.543Z,1.52
2022-09-26T14:08:44.428Z,1.58
2022-09-26T14:11:25.120Z,1.80
2022-09-26T14:14:18.615Z,2.00
2022-09-26T14:16:50.323Z,1.85
2022-09-26T14:19:54.159Z,1.60
2022-09-26T14:22:50.418Z,1.60
2022-09-26T14:25:44.766Z,1.80
2022-09-26T14:28:22.694Z,1.77
2022-09-26T14:31:31.529Z,1.80
2022-09-26T14:34:16.863Z,1.73
2022-09-26T14:36:49.293Z,2.20
2022-09-26T14:39:27.680Z,1.80
2022-09-26T14:41:55.639Z,1.92
2022-09-26T14:44:22.562Z,1.83
2022-09-26T14:46:54.560Z,1.85
2022-09-26T14:49:27.118Z,1.80
2022-09-26T14:52:01.002Z,1.63
2022-09-26T14:54:46.990Z,2.03
2022-09-26T14:57:23.818Z,2.03
2022-09-26T14:59:50.490Z,1.90
2022-09-26T15:02:38.179Z,2.10
2022-09-26T15:05:09.228Z,2.53
2022-09-26T15:07:56.850Z,2.10
2022-09-26T15:10:35.362Z,1.85
2022-09-26T15:13:17.042Z,2.35
2022-09-26T15:16:10.127Z,1.98
2022-09-26T15:18:45.947Z,2.20
2022-09-26T15:21:28.404Z,2.17
2022-09-26T15:23:57.276Z,2.05
2022-09-26T15:26:33.274Z,2.10
2022-09-26T15:31:37.349Z,2.00
2022-09-26T15:34:19.832Z,2.10
2022-09-26T15:36:51.464Z,2.10
2022-09-26T15:39:30.282Z,1.95
2022-09-26T15:42:20.624Z,2.20
2022-09-26T15:45:00.737Z,1.88
2022-09-26T15:47:30.340Z,2.00
2022-09-26T15:50:23.361Z,1.98
2022-09-26T15:52:56.523Z,2.05
2022-09-26T15:55:28.212Z,2.00
2022-09-26T15:57:59.231Z,2.00
2022-09-26T16:00:26.055Z,2.25
2022-09-26T16:02:53.734Z,1.98
2022-09-26T16:05:21.659Z,2.25
2022-09-26T16:07:51.454Z,1.92
2022-09-26T16:10:32.048Z,2.35
2022-09-26T16:13:00.514Z,2.25
2022-09-26T16:15:30.949Z,2.08
2022-09-26T16:17:58.722Z,1.88
2022-09-26T16:20:31.262Z,2.05
2022-09-26T16:23:05.353Z,2.20
2022-09-26T16:25:51.197Z,2.30
2022-09-26T16:28:18.094Z,1.90
2022-09-26T16:30:51.493Z,2.17
2022-09-26T16:33:32.702Z,2.03
2022-09-26T16:36:13.196Z,2.03
2022-09-26T16:38:39.593Z,2.17
2022-09-26T16:41:56.495Z,2.10
2022-09-26T16:44:27.797Z,2.08
2022-09-26T16:46:56.032Z,1.85
2022-09-26T16:49:34.461Z,1.90
2022-09-26T16:52:21.819Z,1.63
2022-09-26T16:54:48.998Z,1.73
2022-09-26T16:57:22.639Z,2.00
2022-09-26T16:59:49.587Z,1.70
2022-09-26T17:02:16.995Z,1.95
2022-09-26T17:04:43.570Z,1.98
2022-09-26T17:07:13.958Z,1.90
2022-09-26T17:09:42.498Z,2.90
2022-09-26T17:12:19.482Z,5.63
2022-09-26T17:14:49.079Z,3.38
2022-09-26T17:17:21.763Z,2.38
2022-09-26T17:19:55.391Z,2.30
2022-09-26T17:22:26.667Z,1.70
2022-09-26T17:24:53.974Z,2.00
2022-09-26T17:27:41.428Z,1.63
2022-09-26T17:30:16.216Z,1.77
2022-09-26T17:32:47.165Z,2.05
2022-09-26T17:35:19.944Z,2.05
2022-09-26T17:37:46.428Z,2.28
2022-09-26T17:40:17.260Z,1.88
2022-09-26T17:42:43.651Z,1.95
2022-09-26T17:45:10.112Z,1.92
2022-09-26T17:47:37.919Z,2.00
2022-09-26T17:50:05.254Z,1.90
2022-09-26T17:52:33.259Z,1.90
2022-09-26T17:55:04.175Z,1.88
2022-09-26T17:57:32.993Z,1.73
2022-09-26T18:00:15.366Z,2.17
2022-09-26T18:02:46.079Z,2.15
2022-09-26T18:05:21.571Z,1.73
2022-09-26T18:07:52.283Z,1.77
2022-09-26T18:10:33.986Z,1.70
2022-09-26T18:13:12.728Z,1.80
2022-09-26T18:15:39.814Z,1.67
2022-09-26T18:18:14.359Z,1.80
2022-09-26T18:20:41.106Z,1.88
2022-09-26T18:23:14.864Z,1.85
2022-09-26T18:25:43.507Z,2.13
2022-09-26T18:28:14.248Z,1.70
2022-09-26T18:30:44.373Z,1.85
2022-09-26T18:33:13.433Z,2.00
2022-09-26T18:35:43.023Z,1.95
2022-09-26T18:38:09.711Z,1.73
2022-09-26T18:40:43.293Z,1.75
2022-09-26T18:43:20.746Z,4.10
2022-09-26T18:45:47.439Z,3.20
2022-09-26T18:48:27.412Z,2.38
2022-09-26T18:50:54.105Z,2.40
2022-09-26T18:53:23.284Z,2.60
2022-09-26T18:56:08.274Z,2.33
2022-09-26T18:58:35.481Z,2.25
2022-09-26T19:01:06.293Z,2.13
2022-09-26T19:03:37.961Z,1.98
2022-09-26T19:06:18.906Z,2.10
2022-09-26T19:08:49.586Z,2.30
2022-09-26T19:11:19.503Z,2.10
2022-09-26T19:13:51.472Z,2.40
2022-09-26T19:16:18.600Z,2.42
2022-09-26T19:18:45.849Z,2.60
2022-09-26T19:21:22.831Z,2.50
2022-09-26T19:23:50.346Z,2.28
2022-09-26T19:26:29.547Z,2.38
2022-09-26T19:28:57.974Z,2.33
2022-09-26T19:31:25.794Z,2.85
2022-09-26T19:33:52.537Z,2.67
2022-09-26T19:36:19.959Z,2.58
2022-09-26T19:38:46.729Z,2.75
2022-09-26T19:41:13.433Z,2.85
2022-09-26T19:43:39.862Z,2.90
2022-09-26T19:46:13.221Z,2.85
2022-09-26T19:48:42.361Z,2.97
2022-09-26T19:51:12.288Z,3.42
2022-09-26T19:53:38.902Z,3.17
2022-09-26T19:56:05.628Z,3.10
2022-09-26T19:58:32.066Z,3.20
2022-09-26T20:01:02.531Z,2.63
2022-09-26T20:03:39.859Z,2.65
2022-09-26T20:06:18.472Z,2.80
2022-09-26T20:08:45.180Z,3.00
2022-09-26T20:11:11.851Z,2.78
2022-09-26T20:13:56.731Z,2.75
2022-09-26T20:16:23.655Z,2.90
2022-09-26T20:18:51.422Z,3.05
2022-09-26T20:21:22.365Z,3.10
2022-09-26T20:23:48.801Z,3.03
2022-09-26T20:26:17.103Z,2.65
2022-09-26T20:28:44.278Z,2.75
2022-09-26T20:31:19.573Z,2.70
2022-09-26T20:33:46.124Z,2.90
2022-09-26T20:36:12.949Z,2.97
2022-09-26T20:38:45.294Z,3.15
2022-09-26T20:41:33.983Z,3.28
2022-09-26T20:44:04.742Z,2.92
2022-09-26T20:46:35.336Z,2.85
2022-09-26T20:49:05.105Z,3.40
2022-09-26T20:51:34.953Z,3.42
2022-09-26T20:54:02.281Z,3.05
2022-09-26T20:56:29.291Z,3.20
2022-09-26T20:58:55.638Z,3.28
2022-09-26T21:01:23.221Z,3.00
2022-09-26T21:03:52.250Z,3.45
2022-09-26T21:06:22.043Z,3.35
2022-09-26T21:08:48.725Z,3.45
2022-09-26T21:11:18.612Z,3.67
2022-09-26T21:13:45.973Z,3.47
2022-09-26T21:16:14.324Z,3.60
2022-09-26T21:18:43.845Z,3.80
2022-09-26T21:21:20.900Z,3.83
2022-09-26T21:23:47.614Z,3.92
2022-09-26T21:26:19.122Z,4.10
2022-09-26T21:28:49.911Z,3.67
2022-09-26T21:31:24.974Z,4.15
2022-09-26T21:33:52.106Z,4.13
2022-09-26T21:36:21.050Z,4.43
2022-09-26T21:38:50.431Z,4.07
2022-09-26T21:41:16.816Z,4.07
2022-09-26T21:43:49.357Z,4.03
2022-09-26T21:46:17.281Z,4.10
2022-09-26T21:48:43.853Z,4.88
2022-09-26T21:51:12.802Z,4.85
2022-09-26T21:53:45.696Z,5.10
2022-09-26T21:56:35.548Z,4.68
2022-09-26T21:59:04.548Z,4.80
2022-09-26T22:01:31.058Z,5.30
2022-09-26T22:03:58.603Z,4.93
2022-09-26T22:06:25.002Z,4.93
2022-09-26T22:08:51.496Z,4.78
2022-09-26T22:11:18.224Z,5.30
2022-09-26T22:13:44.593Z,5.03
2022-09-26T22:16:13.149Z,4.95
2022-09-26T22:18:40.421Z,4.82
2022-09-26T22:21:08.750Z,5.20
2022-09-26T22:23:36.087Z,5.30
2022-09-26T22:26:02.594Z,5.80
2022-09-26T22:28:29.646Z,5.55
2022-09-26T22:31:00.185Z,5.53
2022-09-26T22:33:26.583Z,5.28
2022-09-26T22:35:52.953Z,5.55
2022-09-26T22:38:19.416Z,5.57
2022-09-26T22:40:46.232Z,5.03
2022-09-26T22:43:12.737Z,5.10
2022-09-26T22:45:39.224Z,5.22
2022-09-26T22:48:05.569Z,5.10
2022-09-26T22:50:32.214Z,5.45
2022-09-26T22:52:59.126Z,5.22
2022-09-26T22:55:25.497Z,5.28
2022-09-26T22:57:52.046Z,5.90
2022-09-26T23:00:18.547Z,5.53
2022-09-26T23:02:45.117Z,5.32
2022-09-26T23:05:11.894Z,5.00
2022-09-26T23:07:38.298Z,5.50
2022-09-26T23:10:04.900Z,5.45
2022-09-26T23:12:32.485Z,5.60
2022-09-26T23:14:58.838Z,5.53
2022-09-26T23:17:25.437Z,5.47
2022-09-26T23:19:52.274Z,5.68
2022-09-26T23:22:18.743Z,5.50
2022-09-26T23:24:45.079Z,5.72
2022-09-26T23:27:11.559Z,4.90
2022-09-26T23:29:38.066Z,5.50
2022-09-26T23:32:04.516Z,5.40
2022-09-26T23:34:30.864Z,5.05
2022-09-26T23:36:57.244Z,4.82
2022-09-26T23:39:23.678Z,4.85
2022-09-26T23:41:50.062Z,4.97
2022-09-26T23:44:16.473Z,4.85
2022-09-26T23:46:43.095Z,4.70
2022-09-26T23:49:09.522Z,4.80
2022-09-26T23:51:36.081Z,4.50
2022-09-26T23:54:02.716Z,4.38
2022-09-26T23:56:29.108Z,4.40
2022-09-26T23:58:57.332Z,4.43
